Time;durP1;ratioP1;P1;durP2;ratioP2;P2;SDS_P1;SDS_P2;PMS_P1;PMS_P2;Temp;Humidity;BMP_temperature;BMP_pressure;BME280_temperature;BME280_humidity;BME280_pressure;Samples;Min_cycle;Max_cycle;Signal;HPM_P1;HPM_P2
2023/09/22 00:00:15;;;;;;;7.13;6.47;;;;;;;14.17;100.00;99638.66;1046826;28;20310;-49
2023/09/22 00:00:47;;;;;;;7.78;6.20;;;;;;;14.16;100.00;99642.41;1047200;28;20362;-49
2023/09/22 00:01:20;;;;;;;6.80;6.13;;;;;;;14.20;100.00;99646.16;1044746;28;20856;-51
2023/09/22 00:01:52;;;;;;;6.18;5.38;;;;;;;14.17;100.00;99644.81;1046607;28;20295;-51
2023/09/22 00:02:24;;;;;;;9.13;6.10;;;;;;;14.16;100.00;99642.41;1047404;28;20797;-47
2023/09/22 00:02:56;;;;;;;7.78;6.97;;;;;;;14.18;100.00;99648.31;1047804;28;20380;-50
2023/09/22 00:03:30;;;;;;;11.18;7.28;;;;;;;14.14;100.00;99647.25;1051461;28;20297;-50
2023/09/22 00:04:02;;;;;;;9.13;6.78;;;;;;;14.10;100.00;99649.66;1051544;28;20451;-51
2023/09/22 00:04:35;;;;;;;7.93;7.05;;;;;;;14.10;100.00;99646.97;1051932;28;20298;-50
2023/09/22 00:05:10;;;;;;;8.43;7.05;;;;;;;14.06;100.00;99647.78;1047030;28;20404;-50
2023/09/22 00:05:42;;;;;;;6.88;6.15;;;;;;;14.04;100.00;99649.94;1046918;28;20294;-50
2023/09/22 00:06:14;;;;;;;10.48;6.60;;;;;;;14.05;100.00;99652.34;1047116;28;20295;-54
2023/09/22 00:06:45;;;;;;;9.25;6.07;;;;;;;14.09;100.00;99652.59;1048299;28;20290;-54
2023/09/22 00:07:17;;;;;;;9.55;7.15;;;;;;;14.10;100.00;99649.66;1051493;28;20302;-54
2023/09/22 00:07:49;;;;;;;8.63;7.70;;;;;;;14.00;100.00;99655.03;1051533;28;20447;-54
2023/09/22 00:08:23;;;;;;;11.43;6.53;;;;;;;14.10;100.00;99648.84;1052736;28;20286;-49
2023/09/22 00:08:55;;;;;;;8.27;7.45;;;;;;;14.11;100.00;99653.13;1051683;28;20286;-50
2023/09/22 00:09:27;;;;;;;8.57;7.32;;;;;;;14.08;100.00;99651.00;1051449;28;20641;-48
2023/09/22 00:09:59;;;;;;;9.90;7.68;;;;;;;14.14;100.00;99655.28;1051399;28;20302;-51
2023/09/22 00:10:31;;;;;;;9.05;7.35;;;;;;;13.94;100.00;99650.72;1051792;28;20706;-51
2023/09/22 00:11:08;;;;;;;8.55;7.22;;;;;;;14.00;100.00;99659.56;1052229;28;20405;-53
2023/09/22 00:11:40;;;;;;;9.57;7.05;;;;;;;14.03;100.00;99654.47;1052304;28;20315;-53
2023/09/22 00:12:12;;;;;;;13.07;7.68;;;;;;;14.03;100.00;99653.69;1051505;28;20334;-54
2023/09/22 00:12:44;;;;;;;9.10;7.55;;;;;;;14.05;100.00;99657.69;1051769;28;20285;-54
2023/09/22 00:13:16;;;;;;;10.98;7.35;;;;;;;14.08;100.00;99653.69;1051601;28;20877;-54
2023/09/22 00:13:48;;;;;;;11.43;8.93;;;;;;;14.07;100.00;99649.41;1051636;28;20763;-54
2023/09/22 00:14:20;;;;;;;10.60;8.27;;;;;;;14.09;100.00;99658.75;1051505;28;20312;-54
2023/09/22 00:14:52;;;;;;;9.38;7.88;;;;;;;14.09;100.00;99657.97;1051703;28;20335;-54
2023/09/22 00:15:24;;;;;;;9.13;7.28;;;;;;;14.10;100.00;99649.66;1051757;28;20293;-54
2023/09/22 00:15:56;;;;;;;8.90;7.88;;;;;;;14.09;100.00;99657.97;1051130;28;20302;-54
2023/09/22 00:16:27;;;;;;;11.02;8.02;;;;;;;14.10;100.00;99659.56;1052780;28;20297;-54
2023/09/22 00:16:59;;;;;;;8.65;7.75;;;;;;;14.16;100.00;99653.94;1051998;28;20298;-53
2023/09/22 00:17:40;;;;;;;11.77;8.57;;;;;;;14.09;100.00;99664.13;1052196;28;20294;-53
2023/09/22 00:18:19;;;;;;;8.77;7.38;;;;;;;14.03;100.00;99654.47;1052118;28;20294;-48
2023/09/22 00:18:51;;;;;;;11.05;8.27;;;;;;;14.03;100.00;99659.03;1051737;28;20286;-53
2023/09/22 00:19:22;;;;;;;9.32;7.63;;;;;;;13.97;100.00;99657.41;1049136;28;20299;-54
2023/09/22 00:19:54;;;;;;;12.27;8.57;;;;;;;13.91;100.00;99662.75;1048785;28;20309;-53
2023/09/22 00:20:26;;;;;;;11.00;7.57;;;;;;;13.98;100.00;99665.19;1051615;28;20304;-54
2023/09/22 00:20:58;;;;;;;13.38;8.40;;;;;;;13.97;100.00;99665.44;1052023;28;20830;-54
2023/09/22 00:21:29;;;;;;;10.60;9.52;;;;;;;13.89;100.00;99664.09;1051421;28;20443;-50
2023/09/22 00:22:02;;;;;;;10.05;8.68;;;;;;;14.00;100.00;99664.94;1051670;28;20308;-50
2023/09/22 00:22:41;;;;;;;10.13;9.02;;;;;;;14.02;100.00;99673.50;1053448;28;20810;-53
2023/09/22 00:23:14;;;;;;;10.93;8.77;;;;;;;14.01;100.00;99664.66;1053295;28;20293;-53
2023/09/22 00:23:46;;;;;;;11.93;9.23;;;;;;;13.92;100.00;99667.03;1053335;28;20647;-53
2023/09/22 00:24:18;;;;;;;11.18;9.82;;;;;;;13.99;100.00;99657.97;1052540;28;20792;-53
2023/09/22 00:24:50;;;;;;;13.07;9.45;;;;;;;14.05;100.00;99668.41;1052757;28;20363;-54
2023/09/22 00:25:22;;;;;;;11.10;8.50;;;;;;;13.98;100.00;99667.06;1053070;28;20289;-50
2023/09/22 00:25:54;;;;;;;11.38;9.35;;;;;;;14.00;100.00;99670.28;1052583;28;20319;-48
2023/09/22 00:26:25;;;;;;;12.27;9.23;;;;;;;14.02;100.00;99670.81;1052313;28;20403;-52
2023/09/22 00:26:57;;;;;;;10.57;9.45;;;;;;;14.04;100.00;99666.81;1052805;28;20827;-49
2023/09/22 00:27:29;;;;;;;11.60;9.25;;;;;;;14.02;100.00;99666.25;1053681;28;20834;-52
2023/09/22 00:28:00;;;;;;;12.40;9.88;;;;;;;13.91;100.00;99661.97;1048713;28;20290;-54
2023/09/22 00:28:32;;;;;;;14.20;9.77;;;;;;;13.89;100.00;99662.22;1047928;28;20310;-54
2023/09/22 00:29:04;;;;;;;11.55;9.32;;;;;;;13.98;100.00;99662.53;1047996;28;20814;-53
2023/09/22 00:29:37;;;;;;;10.27;9.07;;;;;;;13.92;100.00;99669.72;1048477;28;20302;-48
2023/09/22 00:30:09;;;;;;;11.95;9.05;;;;;;;13.92;100.00;99659.00;1053071;28;20439;-54
2023/09/22 00:30:41;;;;;;;14.70;9.50;;;;;;;13.95;100.00;99667.56;1052600;28;20657;-54
2023/09/22 00:31:13;;;;;;;12.55;9.85;;;;;;;13.73;100.00;99660.63;1052726;28;20290;-54
2023/09/22 00:31:45;;;;;;;11.88;9.50;;;;;;;13.80;100.00;99661.16;1052314;28;20312;-49
2023/09/22 00:32:17;;;;;;;15.52;10.02;;;;;;;13.85;100.00;99668.38;1052139;28;20290;-50
2023/09/22 00:32:49;;;;;;;15.25;11.95;;;;;;;13.71;100.00;99668.13;1052703;28;20302;-49
2023/09/22 00:33:21;;;;;;;12.18;9.13;;;;;;;13.79;100.00;99658.75;1052366;28;20309;-50
2023/09/22 00:33:52;;;;;;;13.27;9.45;;;;;;;13.76;100.00;99665.44;1047691;28;20970;-49
2023/09/22 00:34:25;;;;;;;13.85;10.23;;;;;;;13.82;100.00;99667.03;1047810;28;21857;-50
2023/09/22 00:34:56;;;;;;;14.02;11.48;;;;;;;13.73;100.00;99671.31;1047821;28;20397;-51
2023/09/22 00:35:28;;;;;;;13.50;10.40;;;;;;;13.75;100.00;99668.38;1048320;28;20301;-50
2023/09/22 00:36:01;;;;;;;14.70;9.43;;;;;;;13.70;100.00;99671.84;1052323;28;20293;-49
2023/09/22 00:36:33;;;;;;;11.55;10.00;;;;;;;13.76;100.00;99672.66;1047669;28;20819;-48
2023/09/22 00:37:05;;;;;;;13.27;9.70;;;;;;;13.69;100.00;99669.41;1045659;28;20299;-52
2023/09/22 00:37:37;;;;;;;15.38;9.50;;;;;;;13.70;100.00;99671.84;1043799;28;20299;-50
2023/09/22 00:38:10;;;;;;;12.05;9.77;;;;;;;13.65;100.00;99674.50;1044078;28;20303;-51
2023/09/22 00:38:43;;;;;;;13.10;10.70;;;;;;;13.73;100.00;99673.19;1043984;28;20307;-51
2023/09/22 00:39:14;;;;;;;12.75;9.68;;;;;;;13.75;100.00;99676.41;1044656;28;20519;-54
2023/09/22 00:39:46;;;;;;;11.27;9.50;;;;;;;13.74;100.00;99675.59;1047852;28;20302;-54
2023/09/22 00:40:19;;;;;;;11.00;9.50;;;;;;;13.75;100.00;99674.53;1048353;28;20310;-54
2023/09/22 00:40:51;;;;;;;11.48;9.48;;;;;;;13.67;100.00;99672.38;1052690;28;20036;-55
2023/09/22 00:41:23;;;;;;;13.35;9.25;;;;;;;13.72;100.00;99674.28;1053417;28;20302;-50
2023/09/22 00:41:55;;;;;;;11.55;9.10;;;;;;;13.75;100.00;99676.41;1052242;28;20313;-51
2023/09/22 00:42:27;;;;;;;12.52;11.00;;;;;;;13.78;100.00;99675.88;1052803;28;20290;-51
2023/09/22 00:43:06;;;;;;;11.98;9.13;;;;;;;13.76;100.00;99681.50;1052687;28;20294;-49
2023/09/22 00:43:38;;;;;;;11.52;9.38;;;;;;;13.75;100.00;99679.88;1052751;28;20787;-51
2023/09/22 00:44:09;;;;;;;13.10;9.70;;;;;;;13.74;100.00;99672.94;1052390;28;20302;-51
2023/09/22 00:44:41;;;;;;;12.60;10.30;;;;;;;13.74;100.00;99677.47;1052335;28;20298;-54
2023/09/22 00:45:14;;;;;;;16.00;9.10;;;;;;;13.76;100.00;99676.16;1047938;28;20302;-54
2023/09/22 00:45:49;;;;;;;12.57;10.52;;;;;;;13.74;100.00;99678.28;1043770;28;20630;-54
2023/09/22 00:46:25;;;;;;;11.57;9.48;;;;;;;13.72;100.00;99682.28;1047826;28;21019;-54
2023/09/22 00:46:58;;;;;;;13.38;9.60;;;;;;;13.74;100.00;99677.47;1040321;28;20292;-54
2023/09/22 00:47:30;;;;;;;12.02;10.73;;;;;;;13.77;100.00;99675.06;1043664;28;20300;-54
2023/09/22 00:48:02;;;;;;;13.15;10.65;;;;;;;13.78;100.00;99683.91;1039585;28;20308;-54
2023/09/22 00:48:35;;;;;;;12.02;10.38;;;;;;;13.68;100.00;99690.03;1032330;28;20306;-54
2023/09/22 00:49:08;;;;;;;11.65;8.95;;;;;;;13.75;100.00;99687.91;1036166;28;20301;-53
2023/09/22 00:49:42;;;;;;;12.00;8.98;;;;;;;13.73;100.00;99687.38;1039542;28;20552;-52
2023/09/22 00:50:14;;;;;;;11.85;9.73;;;;;;;13.75;100.00;99684.44;1036424;28;20308;-50
2023/09/22 00:50:47;;;;;;;10.93;9.32;;;;;;;13.74;100.00;99686.31;1041148;28;20292;-51
2023/09/22 00:51:19;;;;;;;11.20;9.88;;;;;;;13.64;100.00;99683.59;1039600;28;20418;-48
2023/09/22 00:51:51;;;;;;;10.68;8.73;;;;;;;13.72;100.00;99684.97;1040086;28;20310;-49
2023/09/22 00:52:25;;;;;;;11.43;9.75;;;;;;;13.68;100.00;99690.03;1044263;28;20291;-50
2023/09/22 00:52:57;;;;;;;12.07;9.52;;;;;;;13.71;100.00;99684.16;1048801;28;20312;-49
2023/09/22 00:53:31;;;;;;;13.48;8.98;;;;;;;13.72;100.00;99685.78;1052274;28;20298;-50
2023/09/22 00:54:03;;;;;;;13.07;9.90;;;;;;;13.63;100.00;99682.00;1048071;28;20295;-49
2023/09/22 00:54:35;;;;;;;12.02;9.45;;;;;;;13.57;100.00;99681.19;1040936;28;20866;-51
2023/09/22 00:55:07;;;;;;;15.73;10.35;;;;;;;13.72;100.00;99685.78;1043746;28;20304;-50
2023/09/22 00:55:39;;;;;;;11.30;8.68;;;;;;;13.62;100.00;99680.38;1038258;28;20818;-50
2023/09/22 00:56:10;;;;;;;13.57;10.20;;;;;;;13.65;100.00;99685.19;1044098;28;20299;-51
2023/09/22 00:56:45;;;;;;;11.23;8.88;;;;;;;13.71;100.00;99683.38;1044312;28;20512;-53
2023/09/22 00:57:23;;;;;;;9.90;8.82;;;;;;;13.70;100.00;99692.47;1043642;28;20367;-49
2023/09/22 00:57:54;;;;;;;10.50;8.95;;;;;;;13.74;100.00;99694.34;1043923;28;20299;-49
2023/09/22 00:58:26;;;;;;;11.65;9.23;;;;;;;13.68;100.00;99687.34;1045297;28;20298;-50
2023/09/22 00:58:58;;;;;;;10.55;9.27;;;;;;;13.69;100.00;99685.47;1047689;28;20302;-50
2023/09/22 00:59:31;;;;;;;14.30;9.88;;;;;;;13.70;100.00;99679.88;1048442;28;20297;-50
2023/09/22 01:00:04;;;;;;;12.35;9.32;;;;;;;13.69;100.00;99686.28;1052535;28;20383;-51
2023/09/22 01:00:36;;;;;;;12.23;9.82;;;;;;;13.48;100.00;99690.81;1052234;28;20297;-48
2023/09/22 01:01:08;;;;;;;12.90;9.95;;;;;;;13.57;100.00;99683.06;1047794;28;20303;-48
2023/09/22 01:01:42;;;;;;;14.80;9.90;;;;;;;13.60;100.00;99687.88;1048073;28;20304;-50
2023/09/22 01:02:14;;;;;;;10.57;9.40;;;;;;;13.65;100.00;99685.19;1043796;28;20730;-53
2023/09/22 01:02:45;;;;;;;11.60;9.75;;;;;;;13.64;100.00;99680.91;1044644;28;20846;-52
2023/09/22 01:03:17;;;;;;;12.18;9.32;;;;;;;13.65;100.00;99685.19;1043603;28;20307;-51
2023/09/22 01:03:53;;;;;;;17.65;9.00;;;;;;;13.74;100.00;99678.28;1044509;28;20378;-47
2023/09/22 01:04:25;;;;;;;13.05;8.70;;;;;;;13.74;100.00;99686.31;1048031;28;20286;-51
2023/09/22 01:04:57;;;;;;;10.30;8.98;;;;;;;13.75;100.00;99684.44;1046030;28;20811;-52
2023/09/22 01:05:31;;;;;;;13.95;10.02;;;;;;;13.76;100.00;99680.69;1046963;28;20370;-52
2023/09/22 01:06:03;;;;;;;12.98;9.88;;;;;;;13.77;100.00;99688.47;1044587;28;20311;-48
2023/09/22 01:06:35;;;;;;;10.88;8.77;;;;;;;13.74;100.00;99683.63;1043980;28;20299;-50
2023/09/22 01:07:08;;;;;;;11.35;9.32;;;;;;;13.70;100.00;99673.72;1042456;28;20326;-48
2023/09/22 01:07:39;;;;;;;17.00;9.32;;;;;;;13.59;100.00;99680.91;1042871;28;20303;-50
2023/09/22 01:08:12;;;;;;;11.35;8.88;;;;;;;13.69;100.00;99686.28;1045785;28;20699;-50
2023/09/22 01:08:44;;;;;;;12.23;9.55;;;;;;;13.70;100.00;99687.91;1049042;28;20314;-49
2023/09/22 01:09:15;;;;;;;13.93;9.27;;;;;;;13.62;100.00;99672.34;1052255;28;20833;-51
2023/09/22 01:09:47;;;;;;;13.68;10.85;;;;;;;13.69;100.00;99680.13;1052010;28;20285;-48
2023/09/22 01:10:19;;;;;;;11.93;10.07;;;;;;;13.74;100.00;99689.00;1052361;28;20780;-54
2023/09/22 01:10:51;;;;;;;11.13;9.23;;;;;;;13.71;100.00;99686.84;1052425;28;20699;-53
2023/09/22 01:11:23;;;;;;;11.85;8.85;;;;;;;13.71;100.00;99692.19;1052137;28;20301;-53
2023/09/22 01:11:55;;;;;;;13.15;10.00;;;;;;;13.68;100.00;99687.34;1047844;28;20309;-54
2023/09/22 01:12:27;;;;;;;10.32;9.25;;;;;;;13.68;100.00;99689.22;1043441;28;20902;-53
2023/09/22 01:12:58;;;;;;;11.85;9.32;;;;;;;13.53;100.00;99684.66;1043491;28;20303;-49
2023/09/22 01:13:31;;;;;;;12.70;9.85;;;;;;;13.50;100.00;99687.84;1044191;28;20661;-49
2023/09/22 01:14:03;;;;;;;10.40;9.27;;;;;;;13.54;100.00;99678.22;1048537;28;20389;-48
2023/09/22 01:14:34;;;;;;;10.20;9.10;;;;;;;13.54;100.00;99676.38;1047660;28;20291;-49
2023/09/22 01:15:08;;;;;;;14.02;9.20;;;;;;;13.43;100.00;99681.97;1047795;28;21589;-53
2023/09/22 01:15:41;;;;;;;11.57;9.95;;;;;;;13.54;100.00;99678.22;1047789;28;20425;-54
2023/09/22 01:16:13;;;;;;;12.07;9.50;;;;;;;13.53;100.00;99676.63;1048751;28;20291;-54
2023/09/22 01:16:45;;;;;;;11.73;9.30;;;;;;;13.49;100.00;99678.22;1051922;28;20324;-54
2023/09/22 01:17:25;;;;;;;11.85;9.57;;;;;;;13.47;100.00;99672.34;1052930;28;20306;-54
2023/09/22 01:17:56;;;;;;;11.18;9.98;;;;;;;13.25;100.00;99670.66;1047777;28;20079;-56
2023/09/22 01:18:29;;;;;;;11.70;10.32;;;;;;;13.26;100.00;99672.25;1035603;28;20443;-54
2023/09/22 01:19:01;;;;;;;11.63;9.13;;;;;;;13.36;100.00;99681.38;1034563;28;20289;-54
2023/09/22 01:19:34;;;;;;;9.90;8.23;;;;;;;13.33;100.00;99684.59;1035779;28;20352;-54
2023/09/22 01:20:07;;;;;;;10.45;9.07;;;;;;;13.32;100.00;99674.94;1046205;28;20311;-54
2023/09/22 01:20:43;;;;;;;14.80;8.85;;;;;;;13.30;100.00;99684.03;1056064;28;20333;-53
2023/09/22 01:21:16;;;;;;;12.85;9.70;;;;;;;13.32;100.00;99682.97;1056282;28;21033;-54
2023/09/22 01:21:48;;;;;;;10.15;9.05;;;;;;;13.23;100.00;99683.50;1054833;28;20806;-53
2023/09/22 01:22:20;;;;;;;10.45;8.85;;;;;;;13.18;100.00;99683.47;1052230;28;20391;-53
2023/09/22 01:22:51;;;;;;;11.48;9.40;;;;;;;13.14;100.00;99685.00;1047689;28;20369;-54
2023/09/22 01:23:23;;;;;;;12.75;9.43;;;;;;;13.18;100.00;99680.81;1047906;28;20337;-54
2023/09/22 01:23:55;;;;;;;12.45;10.05;;;;;;;13.20;100.00;99678.66;1048025;28;20302;-54
2023/09/22 01:24:27;;;;;;;12.55;8.10;;;;;;;13.18;100.00;99682.66;1047977;28;20303;-54
2023/09/22 01:24:58;;;;;;;12.02;9.88;;;;;;;13.15;100.00;99686.66;1052265;28;20314;-53
2023/09/22 01:25:30;;;;;;;13.15;9.85;;;;;;;13.20;100.00;99693.91;1047988;28;20357;-54
2023/09/22 01:26:03;;;;;;;13.32;9.35;;;;;;;13.16;100.00;99688.25;1047622;28;20712;-54
2023/09/22 01:26:36;;;;;;;13.38;10.35;;;;;;;13.09;100.00;99693.00;1043145;28;20689;-54
2023/09/22 01:27:08;;;;;;;21.33;10.20;;;;;;;13.07;100.00;99692.47;1044924;28;20322;-47
2023/09/22 01:27:41;;;;;;;10.90;9.13;;;;;;;13.09;100.00;99692.22;1047405;28;20887;-54
2023/09/22 01:28:14;;;;;;;11.15;9.07;;;;;;;13.06;100.00;99692.72;1048453;28;20677;-51
2023/09/22 01:28:46;;;;;;;10.60;9.15;;;;;;;13.04;100.00;99690.31;1052034;28;20337;-50
2023/09/22 01:29:19;;;;;;;13.30;10.05;;;;;;;12.94;100.00;99700.97;1050820;28;20648;-48
2023/09/22 01:29:51;;;;;;;12.90;9.73;;;;;;;12.92;100.00;99697.75;1052652;28;20335;-51
2023/09/22 01:30:23;;;;;;;10.80;9.52;;;;;;;12.98;100.00;99691.38;1051997;28;20362;-47
2023/09/22 01:30:55;;;;;;;9.90;8.70;;;;;;;12.98;100.00;99692.16;1052241;28;20310;-50
2023/09/22 01:31:26;;;;;;;12.65;9.88;;;;;;;12.94;100.00;99699.09;1052331;28;20823;-51
2023/09/22 01:32:00;;;;;;;13.25;10.02;;;;;;;13.03;100.00;99703.94;1044903;28;20674;-49
2023/09/22 01:32:32;;;;;;;11.48;9.18;;;;;;;13.09;100.00;99705.56;1043604;28;20296;-51
2023/09/22 01:33:03;;;;;;;9.63;8.38;;;;;;;13.00;100.00;99699.94;1043206;28;20698;-53
2023/09/22 01:33:35;;;;;;;10.38;8.73;;;;;;;13.05;100.00;99707.97;1040026;28;20303;-54
2023/09/22 01:34:08;;;;;;;11.88;9.05;;;;;;;13.06;100.00;99698.88;1044108;28;20382;-54
2023/09/22 01:34:40;;;;;;;10.60;9.50;;;;;;;13.05;100.00;99699.16;1047652;28;20389;-53
2023/09/22 01:35:12;;;;;;;13.20;10.52;;;;;;;13.04;100.00;99701.00;1048542;28;20301;-54
2023/09/22 01:35:44;;;;;;;11.93;9.05;;;;;;;13.08;100.00;99702.09;1052271;28;20354;-51
2023/09/22 01:36:15;;;;;;;15.52;9.20;;;;;;;13.08;100.00;99704.78;1052105;28;20644;-51
2023/09/22 01:36:50;;;;;;;11.23;9.20;;;;;;;13.10;100.00;99707.97;1047546;28;20382;-51
2023/09/22 01:37:26;;;;;;;14.13;10.07;;;;;;;13.15;100.00;99702.69;1046965;28;20302;-49
2023/09/22 01:38:08;;;;;;;11.57;8.98;;;;;;;13.13;100.00;99704.78;1043766;28;20298;-50
2023/09/22 01:38:39;;;;;;;13.40;9.63;;;;;;;13.16;100.00;99715.00;1041629;28;20357;-54
2023/09/22 01:39:15;;;;;;;10.60;8.90;;;;;;;13.10;100.00;99709.84;1043679;28;20298;-53
2023/09/22 01:39:47;;;;;;;11.77;9.23;;;;;;;13.11;100.00;99701.56;1042360;28;20347;-54
2023/09/22 01:40:19;;;;;;;12.52;9.10;;;;;;;13.13;100.00;99707.47;1053215;28;20305;-54
2023/09/22 01:40:51;;;;;;;11.23;9.02;;;;;;;13.13;100.00;99707.47;1055528;28;20338;-54
2023/09/22 01:41:23;;;;;;;13.73;9.52;;;;;;;13.14;100.00;99709.06;1053694;28;20376;-54
2023/09/22 01:41:55;;;;;;;10.32;9.20;;;;;;;13.12;100.00;99703.19;1051812;28;20310;-54
2023/09/22 01:42:27;;;;;;;12.55;8.75;;;;;;;13.12;100.00;99711.19;1051968;28;20783;-54
2023/09/22 01:42:58;;;;;;;11.80;10.10;;;;;;;13.14;100.00;99706.41;1052440;28;20333;-52
2023/09/22 01:43:30;;;;;;;26.73;10.32;;;;;;;13.17;100.00;99697.91;1050829;28;20357;-54
2023/09/22 01:44:01;;;;;;;12.65;9.88;;;;;;;13.13;100.00;99710.13;1048034;28;20313;-54
2023/09/22 01:44:33;;;;;;;14.25;10.85;;;;;;;13.12;100.00;99703.19;1048083;28;20781;-54
2023/09/22 01:45:05;;;;;;;12.50;10.15;;;;;;;13.14;100.00;99711.75;1049976;28;20294;-54
2023/09/22 01:45:38;;;;;;;11.77;10.27;;;;;;;13.10;100.00;99707.97;1049497;28;20306;-54
2023/09/22 01:46:10;;;;;;;15.32;10.98;;;;;;;13.10;100.00;99705.31;1051610;28;20302;-50
2023/09/22 01:46:41;;;;;;;14.00;10.90;;;;;;;13.04;100.00;99706.34;1051987;28;20403;-49
2023/09/22 01:47:13;;;;;;;11.30;10.13;;;;;;;13.07;100.00;99707.72;1051970;28;20302;-50
2023/09/22 01:47:45;;;;;;;13.65;10.77;;;;;;;13.04;100.00;99711.72;1052061;28;20751;-49
2023/09/22 01:48:16;;;;;;;13.77;11.27;;;;;;;13.09;100.00;99709.06;1052082;28;20301;-51
2023/09/22 01:48:49;;;;;;;15.48;10.93;;;;;;;13.09;100.00;99708.25;1052823;28;20362;-52
2023/09/22 01:49:21;;;;;;;13.75;12.27;;;;;;;13.07;100.00;99705.84;1050689;28;20341;-54
2023/09/22 01:49:52;;;;;;;13.40;10.02;;;;;;;13.04;100.00;99706.34;1052100;28;20451;-53
2023/09/22 01:50:25;;;;;;;16.55;11.85;;;;;;;13.15;100.00;99704.56;1054931;28;20361;-53
2023/09/22 01:51:01;;;;;;;19.23;13.52;;;;;;;13.12;100.00;99708.53;1056132;28;20865;-54
2023/09/22 01:51:33;;;;;;;16.55;12.27;;;;;;;13.09;100.00;99703.69;1049487;28;20305;-54
2023/09/22 01:52:05;;;;;;;15.55;12.38;;;;;;;13.07;100.00;99711.19;1051819;28;20711;-54
2023/09/22 01:52:37;;;;;;;14.07;11.23;;;;;;;13.12;100.00;99708.53;1051553;28;20440;-54
2023/09/22 01:53:11;;;;;;;15.10;11.90;;;;;;;13.04;100.00;99711.72;1057483;28;20357;-54
2023/09/22 01:53:43;;;;;;;14.55;11.30;;;;;;;13.03;100.00;99707.44;1051810;28;20663;-50
2023/09/22 01:54:15;;;;;;;17.80;11.77;;;;;;;13.03;100.00;99702.06;1052568;28;20306;-51
2023/09/22 01:54:47;;;;;;;14.68;11.15;;;;;;;13.06;100.00;99709.56;1056006;28;20354;-50
2023/09/22 01:55:19;;;;;;;16.70;12.40;;;;;;;13.05;100.00;99710.63;1056220;28;20305;-51
2023/09/22 01:55:51;;;;;;;16.55;12.90;;;;;;;13.00;100.00;99710.63;1055703;28;20290;-50
2023/09/22 01:56:23;;;;;;;15.32;11.95;;;;;;;13.02;100.00;99710.34;1052481;28;20301;-51
2023/09/22 01:56:55;;;;;;;17.33;13.45;;;;;;;13.03;100.00;99710.09;1044429;28;20306;-51
2023/09/22 01:57:27;;;;;;;19.88;12.52;;;;;;;13.04;100.00;99709.03;1043843;28;20653;-52
2023/09/22 01:57:58;;;;;;;15.20;11.82;;;;;;;13.06;100.00;99706.91;1044836;28;20303;-52
2023/09/22 01:58:30;;;;;;;15.70;12.75;;;;;;;13.04;100.00;99714.38;1042855;28;20483;-48
2023/09/22 01:59:02;;;;;;;18.55;12.90;;;;;;;13.12;100.00;99703.19;1048053;28;20299;-50
2023/09/22 01:59:33;;;;;;;19.45;14.10;;;;;;;13.11;100.00;99714.94;1052019;28;20672;-50
2023/09/22 02:00:06;;;;;;;18.08;13.25;;;;;;;13.10;100.00;99705.31;1051541;28;20298;-49
2023/09/22 02:00:42;;;;;;;19.65;13.43;;;;;;;13.10;100.00;99710.66;1051992;28;20298;-50
2023/09/22 02:01:14;;;;;;;16.33;12.48;;;;;;;13.08;100.00;99709.31;1052008;28;20363;-49
2023/09/22 02:01:46;;;;;;;17.85;13.93;;;;;;;13.08;100.00;99712.78;1049333;28;20302;-48
2023/09/22 02:02:18;;;;;;;16.17;13.45;;;;;;;13.08;100.00;99710.13;1051843;28;20812;-50
2023/09/22 02:02:50;;;;;;;19.83;15.00;;;;;;;13.12;100.00;99708.53;1051753;28;20310;-49
2023/09/22 02:03:22;;;;;;;25.95;14.98;;;;;;;13.14;100.00;99717.09;1051946;28;20302;-48
2023/09/22 02:03:54;;;;;;;19.00;14.10;;;;;;;13.12;100.00;99718.41;1051839;28;20297;-47
2023/09/22 02:04:28;;;;;;;19.48;14.13;;;;;;;13.18;100.00;99709.41;1052945;28;20875;-48
2023/09/22 02:05:00;;;;;;;20.25;14.82;;;;;;;13.22;100.00;99713.97;1051737;28;20306;-51
2023/09/22 02:05:31;;;;;;;21.63;15.10;;;;;;;13.22;100.00;99721.19;1051889;28;20290;-49
2023/09/22 02:06:04;;;;;;;18.00;13.30;;;;;;;13.26;100.00;99717.72;1051646;28;20313;-49
2023/09/22 02:06:36;;;;;;;19.08;14.13;;;;;;;13.23;100.00;99715.59;1052038;28;20294;-53
2023/09/22 02:07:08;;;;;;;22.33;15.85;;;;;;;13.26;100.00;99717.72;1051666;28;20305;-52
2023/09/22 02:07:40;;;;;;;20.30;15.60;;;;;;;13.25;100.00;99712.63;1054259;28;20298;-53
2023/09/22 02:08:12;;;;;;;22.13;16.05;;;;;;;13.21;100.00;99723.06;1054532;28;20362;-53
2023/09/22 02:08:43;;;;;;;20.85;15.20;;;;;;;13.15;100.00;99718.72;1047320;28;20688;-52
2023/09/22 02:09:15;;;;;;;23.02;15.32;;;;;;;13.20;100.00;99726.81;1047967;28;20298;-53
2023/09/22 02:09:47;;;;;;;23.33;15.88;;;;;;;13.26;100.00;99728.44;1047848;28;20804;-53
2023/09/22 02:10:19;;;;;;;19.88;16.10;;;;;;;13.21;100.00;99728.41;1051724;28;20298;-52
2023/09/22 02:10:51;;;;;;;22.20;15.93;;;;;;;13.23;100.00;99728.94;1051020;28;20648;-53
2023/09/22 02:11:23;;;;;;;19.15;15.55;;;;;;;13.23;100.00;99741.50;1055864;28;20289;-52
2023/09/22 02:11:55;;;;;;;23.80;16.27;;;;;;;13.22;100.00;99738.03;1055963;28;20901;-48
2023/09/22 02:12:30;;;;;;;22.52;16.30;;;;;;;13.25;100.00;99734.84;1054394;28;20298;-53
2023/09/22 02:13:04;;;;;;;23.65;16.70;;;;;;;13.21;100.00;99739.09;1053303;28;20375;-53
2023/09/22 02:13:36;;;;;;;21.50;15.77;;;;;;;13.22;100.00;99746.06;1055824;28;20301;-53
2023/09/22 02:14:09;;;;;;;20.35;15.60;;;;;;;13.21;100.00;99744.44;1051942;28;20665;-54
2023/09/22 02:14:40;;;;;;;24.83;16.70;;;;;;;13.16;100.00;99741.72;1051935;28;20290;-48
2023/09/22 02:15:13;;;;;;;21.63;15.90;;;;;;;13.18;100.00;99736.16;1051616;28;20298;-51
2023/09/22 02:15:45;;;;;;;26.50;18.48;;;;;;;13.20;100.00;99739.38;1053234;28;20290;-49
2023/09/22 02:16:16;;;;;;;19.83;15.93;;;;;;;13.21;100.00;99739.09;1051583;28;20290;-52
2023/09/22 02:16:49;;;;;;;23.20;16.65;;;;;;;13.23;100.00;99736.97;1052690;28;20323;-48
2023/09/22 02:17:23;;;;;;;24.90;17.88;;;;;;;13.19;100.00;99741.25;1056779;28;20308;-48
2023/09/22 02:17:56;;;;;;;22.10;16.85;;;;;;;13.19;100.00;99751.94;1056344;28;20805;-53
2023/09/22 02:18:27;;;;;;;21.13;16.08;;;;;;;13.23;100.00;99736.97;1051272;28;20290;-54
2023/09/22 02:18:59;;;;;;;20.73;15.85;;;;;;;13.12;100.00;99743.28;1052431;28;20321;-54
2023/09/22 02:19:38;;;;;;;21.63;16.05;;;;;;;13.14;100.00;99737.69;1052498;28;20711;-48
2023/09/22 02:20:46;;;;;;;24.50;18.05;;;;;;;13.16;100.00;99736.38;1051917;28;20357;-53
2023/09/22 02:21:18;;;;;;;23.38;15.70;;;;;;;13.17;100.00;99742.53;1055492;28;20286;-53
2023/09/22 02:21:50;;;;;;;26.05;16.48;;;;;;;13.20;100.00;99742.03;1056634;28;20305;-51
2023/09/22 02:22:22;;;;;;;22.25;16.15;;;;;;;13.13;100.00;99747.56;1056382;28;20289;-48
2023/09/22 02:22:55;;;;;;;22.42;16.63;;;;;;;13.12;100.00;99737.94;1056201;28;21001;-51
2023/09/22 02:23:27;;;;;;;23.95;16.98;;;;;;;13.10;100.00;99742.75;1056492;28;20794;-49
2023/09/22 02:23:59;;;;;;;29.50;17.08;;;;;;;13.05;100.00;99737.38;1056215;28;20293;-49
2023/09/22 02:24:30;;;;;;;23.23;16.50;;;;;;;13.00;100.00;99740.03;1055177;28;21113;-53
2023/09/22 02:25:03;;;;;;;25.15;15.60;;;;;;;13.00;100.00;99743.50;1051577;28;20304;-53
2023/09/22 02:25:35;;;;;;;19.85;14.93;;;;;;;13.04;100.00;99743.78;1056176;28;20293;-54
2023/09/22 02:26:07;;;;;;;21.90;17.23;;;;;;;13.06;100.00;99749.69;1052358;28;20298;-51
2023/09/22 02:26:39;;;;;;;22.38;15.05;;;;;;;13.00;100.00;99738.16;1052844;28;20310;-52
2023/09/22 02:27:10;;;;;;;21.83;16.48;;;;;;;13.04;100.00;99741.13;1052027;28;20298;-50
2023/09/22 02:27:43;;;;;;;22.00;16.95;;;;;;;13.05;100.00;99744.59;1051441;28;20308;-51
2023/09/22 02:28:15;;;;;;;22.65;16.58;;;;;;;13.05;100.00;99750.75;1052568;28;20832;-54
2023/09/22 02:28:51;;;;;;;21.77;16.90;;;;;;;13.03;100.00;99750.19;1057006;28;20655;-47
2023/09/22 02:29:22;;;;;;;18.83;14.70;;;;;;;13.01;100.00;99746.97;1052818;28;20398;-53